createdAt,value
2023-02-16T00:00:19.878Z,51.90
2023-02-16T00:02:50.647Z,51.90
2023-02-16T00:05:26.401Z,51.90
2023-02-16T00:07:56.806Z,51.90
2023-02-16T00:10:27.279Z,51.90
2023-02-16T00:13:13.895Z,52.00
2023-02-16T00:15:43.486Z,51.90
2023-02-16T00:18:19.601Z,51.90
2023-02-16T00:20:49.777Z,51.90
2023-02-16T00:23:19.066Z,51.90
2023-02-16T00:25:48.264Z,52.00
2023-02-16T00:28:22.000Z,51.90
2023-02-16T00:30:51.519Z,51.90
2023-02-16T00:33:23.129Z,51.90
2023-02-16T00:35:52.482Z,51.90
2023-02-16T00:38:21.719Z,51.90
2023-02-16T00:40:51.392Z,51.90
2023-02-16T00:43:31.911Z,51.80
2023-02-16T00:46:01.413Z,51.80
2023-02-16T00:48:32.104Z,51.80
2023-02-16T00:51:01.613Z,51.80
2023-02-16T00:53:31.009Z,51.80
2023-02-16T00:56:00.277Z,51.80
2023-02-16T00:58:33.931Z,51.80
2023-02-16T01:01:09.818Z,51.70
2023-02-16T01:03:40.668Z,51.70
2023-02-16T01:06:28.777Z,51.70
2023-02-16T01:09:29.181Z,51.60
2023-02-16T01:11:58.857Z,51.70
2023-02-16T01:14:28.445Z,51.70
2023-02-16T01:16:57.686Z,51.60
2023-02-16T01:19:28.501Z,51.70
2023-02-16T01:21:57.700Z,51.60
2023-02-16T01:24:30.500Z,51.60
2023-02-16T01:26:59.779Z,51.50
2023-02-16T01:29:28.972Z,51.60
2023-02-16T01:31:58.253Z,51.50
2023-02-16T01:34:28.970Z,51.50
2023-02-16T01:37:00.794Z,51.40
2023-02-16T01:39:30.174Z,51.50
2023-02-16T01:42:15.053Z,51.40
2023-02-16T01:44:49.642Z,51.40
2023-02-16T01:47:31.526Z,51.40
2023-02-16T01:50:03.713Z,51.40
2023-02-16T01:52:37.538Z,51.40
2023-02-16T01:55:16.312Z,51.30
2023-02-16T01:57:48.226Z,51.30
2023-02-16T02:00:28.741Z,51.30
2023-02-16T02:03:21.819Z,51.30
2023-02-16T02:05:52.153Z,51.30
2023-02-16T02:08:27.607Z,51.30
2023-02-16T02:11:08.601Z,51.20
2023-02-16T02:13:43.229Z,51.20
2023-02-16T02:16:13.819Z,51.20
2023-02-16T02:18:45.224Z,51.20
2023-02-16T02:22:00.047Z,51.20
2023-02-16T02:25:01.638Z,51.10
2023-02-16T02:27:34.287Z,51.10
2023-02-16T02:30:24.056Z,51.20
2023-02-16T02:33:28.684Z,51.10
2023-02-16T02:36:14.483Z,51.10
2023-02-16T02:38:54.906Z,51.10
2023-02-16T02:41:51.148Z,51.10
2023-02-16T02:44:24.354Z,51.10
2023-02-16T02:46:53.882Z,51.10
2023-02-16T02:49:23.196Z,51.00
2023-02-16T02:51:53.248Z,51.10
2023-02-16T02:54:43.713Z,51.00
2023-02-16T02:57:37.249Z,51.00
2023-02-16T03:00:29.424Z,51.00
2023-02-16T03:03:03.394Z,51.10
2023-02-16T03:05:35.170Z,51.10
2023-02-16T03:08:14.234Z,51.10
2023-02-16T03:11:05.489Z,51.10
2023-02-16T03:13:40.447Z,51.00
2023-02-16T03:16:15.342Z,51.10
2023-02-16T03:19:04.362Z,51.00
2023-02-16T03:21:52.682Z,50.90
2023-02-16T03:24:45.514Z,50.90
2023-02-16T03:27:34.804Z,50.90
2023-02-16T03:30:06.915Z,51.20
2023-02-16T03:32:38.303Z,50.90
2023-02-16T03:35:08.859Z,51.50
2023-02-16T03:37:38.205Z,50.90
2023-02-16T03:40:28.597Z,50.90
2023-02-16T03:42:59.778Z,50.90
2023-02-16T03:45:29.860Z,50.80
2023-02-16T03:48:00.484Z,50.80
2023-02-16T03:50:29.842Z,50.80
2023-02-16T03:53:07.101Z,50.90
2023-02-16T03:55:37.547Z,50.80
2023-02-16T03:58:07.791Z,50.80
2023-02-16T04:00:37.794Z,50.80
2023-02-16T04:03:10.253Z,50.80
2023-02-16T04:05:40.025Z,50.80
2023-02-16T04:08:10.310Z,50.80
2023-02-16T04:10:40.764Z,50.80
2023-02-16T04:13:09.355Z,50.80
2023-02-16T04:15:38.772Z,50.70
2023-02-16T04:18:09.493Z,50.70
2023-02-16T04:20:38.795Z,50.70
2023-02-16T04:23:08.039Z,50.70
2023-02-16T04:25:37.355Z,50.80
2023-02-16T04:28:07.517Z,50.70
2023-02-16T04:30:36.847Z,50.70
2023-02-16T04:33:06.219Z,50.70
2023-02-16T04:35:36.863Z,50.70
2023-02-16T04:38:06.079Z,50.70
2023-02-16T04:40:35.360Z,50.70
2023-02-16T04:43:04.630Z,50.60
2023-02-16T04:45:34.004Z,50.60
2023-02-16T04:48:03.911Z,50.60
2023-02-16T04:50:33.156Z,50.60
2023-02-16T04:53:03.946Z,50.60
2023-02-16T04:55:33.286Z,50.60
2023-02-16T04:58:02.468Z,50.50
2023-02-16T05:00:31.777Z,50.50
2023-02-16T05:03:01.048Z,50.50
2023-02-16T05:05:31.743Z,50.50
2023-02-16T05:08:00.974Z,50.50
2023-02-16T05:10:31.715Z,50.40
2023-02-16T05:13:18.176Z,50.40
2023-02-16T05:15:47.533Z,50.40
2023-02-16T05:18:16.705Z,50.40
2023-02-16T05:21:15.083Z,50.40
2023-02-16T05:23:44.385Z,50.40
2023-02-16T05:26:15.127Z,50.60
2023-02-16T05:28:44.294Z,50.40
2023-02-16T05:31:13.537Z,50.40
2023-02-16T05:33:42.981Z,50.40
2023-02-16T05:36:12.572Z,50.60
2023-02-16T05:38:41.905Z,51.00
2023-02-16T05:41:11.259Z,51.50
2023-02-16T05:43:41.876Z,51.70
2023-02-16T05:46:11.502Z,51.90
2023-02-16T05:48:40.702Z,52.40
2023-02-16T05:51:09.991Z,52.50
2023-02-16T05:53:39.417Z,52.30
2023-02-16T05:56:09.192Z,52.20
2023-02-16T05:58:38.897Z,52.10
2023-02-16T06:01:09.524Z,51.90
2023-02-16T06:03:39.008Z,51.80
2023-02-16T06:06:09.312Z,51.80
2023-02-16T06:08:39.009Z,51.70
2023-02-16T06:11:28.669Z,51.10
2023-02-16T06:13:59.452Z,51.20
2023-02-16T06:16:31.969Z,51.30
2023-02-16T06:19:01.754Z,51.60
2023-02-16T06:21:31.723Z,51.20
2023-02-16T06:24:01.194Z,51.10
2023-02-16T06:26:30.646Z,51.10
2023-02-16T06:29:00.150Z,51.00
2023-02-16T06:31:30.880Z,51.00
2023-02-16T06:34:01.323Z,51.00
2023-02-16T06:36:31.010Z,51.00
2023-02-16T06:39:00.242Z,50.90
2023-02-16T06:41:38.062Z,50.90
2023-02-16T06:44:09.315Z,50.90
2023-02-16T06:46:40.434Z,50.80
2023-02-16T06:49:12.824Z,50.80
2023-02-16T06:51:42.245Z,50.80
2023-02-16T06:54:11.644Z,50.80
2023-02-16T06:56:41.843Z,50.70
2023-02-16T06:59:12.280Z,50.70
2023-02-16T07:01:44.967Z,50.70
2023-02-16T07:04:15.342Z,50.60
2023-02-16T07:06:44.614Z,50.60
2023-02-16T07:09:13.824Z,50.60
2023-02-16T07:11:43.034Z,50.50
2023-02-16T07:14:12.423Z,50.50
2023-02-16T07:16:43.590Z,50.50
2023-02-16T07:19:13.569Z,50.40
2023-02-16T07:21:43.781Z,50.50
2023-02-16T07:24:13.034Z,50.40
2023-02-16T07:26:42.384Z,50.40
2023-02-16T07:29:11.611Z,50.30
2023-02-16T07:31:40.961Z,50.30
2023-02-16T07:34:11.590Z,50.30
2023-02-16T07:36:41.310Z,50.30
2023-02-16T07:39:10.534Z,50.20
2023-02-16T07:41:39.715Z,50.20
2023-02-16T07:44:10.562Z,50.20
2023-02-16T07:46:39.878Z,50.20
2023-02-16T07:49:10.601Z,50.20
2023-02-16T07:51:40.767Z,50.10
2023-02-16T07:54:09.942Z,50.10
2023-02-16T07:56:39.523Z,50.10
2023-02-16T07:59:08.741Z,50.10
2023-02-16T08:01:40.222Z,50.10
2023-02-16T08:04:10.928Z,50.00
2023-02-16T08:06:40.292Z,50.00
2023-02-16T08:09:09.493Z,50.00
2023-02-16T08:11:38.774Z,50.00
2023-02-16T08:14:08.165Z,50.00
2023-02-16T08:16:37.432Z,50.00
2023-02-16T08:19:06.882Z,50.00
2023-02-16T08:21:37.527Z,50.00
2023-02-16T08:24:09.215Z,50.00
2023-02-16T08:26:40.063Z,50.00
2023-02-16T08:29:13.340Z,49.90
2023-02-16T08:31:43.137Z,50.00
2023-02-16T08:34:13.819Z,49.90
2023-02-16T08:36:45.959Z,49.90
2023-02-16T08:39:16.726Z,49.90
2023-02-16T08:41:47.724Z,49.90
2023-02-16T08:44:18.795Z,49.90
2023-02-16T08:46:49.604Z,49.90
2023-02-16T08:49:20.422Z,49.90
2023-02-16T08:51:54.934Z,49.90
2023-02-16T08:54:27.205Z,49.80
2023-02-16T08:56:56.775Z,49.80
2023-02-16T08:59:29.229Z,49.80
2023-02-16T09:01:59.416Z,49.80
2023-02-16T09:04:29.667Z,49.80
2023-02-16T09:07:01.651Z,49.80
2023-02-16T09:09:31.130Z,49.80
2023-02-16T09:12:00.566Z,49.80
2023-02-16T09:14:29.867Z,49.80
2023-02-16T09:16:59.223Z,49.70
2023-02-16T09:19:28.453Z,49.70
2023-02-16T09:21:58.154Z,49.70
2023-02-16T09:24:28.864Z,49.70
2023-02-16T09:26:58.167Z,49.70
2023-02-16T09:29:27.358Z,49.70
2023-02-16T09:31:57.001Z,49.60
2023-02-16T09:34:27.932Z,49.60
2023-02-16T09:36:58.463Z,49.60
2023-02-16T09:39:29.883Z,49.70
2023-02-16T09:42:06.067Z,49.70
2023-02-16T09:44:45.857Z,49.70
2023-02-16T09:47:22.284Z,49.70
2023-02-16T09:49:53.063Z,49.70
2023-02-16T09:52:28.137Z,49.30
2023-02-16T10:02:51.496Z,86.30
2023-02-16T10:05:26.287Z,88.20
2023-02-16T10:08:03.288Z,86.60
2023-02-16T10:10:42.263Z,84.40
2023-02-16T10:13:20.573Z,83.30
2023-02-16T10:15:53.870Z,88.00
2023-02-16T10:23:47.904Z,60.30
2023-02-16T10:26:29.746Z,67.80
2023-02-16T10:29:01.611Z,74.10
2023-02-16T10:31:37.681Z,66.10
2023-02-16T10:34:33.916Z,61.60
2023-02-16T10:37:15.934Z,67.10
2023-02-16T10:39:52.972Z,70.10
2023-02-16T10:42:31.456Z,66.50
2023-02-16T10:45:08.061Z,65.90
2023-02-16T10:47:39.282Z,66.70
2023-02-16T10:50:17.928Z,65.00
2023-02-16T10:52:47.377Z,61.60
2023-02-16T10:55:17.588Z,64.80
2023-02-16T10:57:55.058Z,61.70
2023-02-16T11:00:34.425Z,62.90
2023-02-16T11:03:05.127Z,61.30
2023-02-16T11:05:38.361Z,61.00
2023-02-16T11:08:11.448Z,62.10
2023-02-16T11:10:48.885Z,60.70
2023-02-16T11:13:34.454Z,55.80
2023-02-16T11:16:11.065Z,59.00
2023-02-16T11:18:42.087Z,59.60
2023-02-16T11:21:12.574Z,60.10
2023-02-16T11:23:43.648Z,59.00
2023-02-16T11:26:25.413Z,57.20
2023-02-16T11:29:19.022Z,94.50
2023-02-16T11:31:48.438Z,92.20
2023-02-16T11:34:30.636Z,54.40
2023-02-16T11:37:06.571Z,51.50
2023-02-16T11:39:40.420Z,50.80
2023-02-16T11:42:19.840Z,50.70
2023-02-16T11:44:54.637Z,50.70
2023-02-16T11:47:27.388Z,50.70
2023-02-16T11:50:19.476Z,50.60
2023-02-16T11:52:49.854Z,50.80
2023-02-16T11:55:27.068Z,50.80
2023-02-16T11:57:57.225Z,50.50
2023-02-16T12:00:28.242Z,50.60
2023-02-16T12:03:27.030Z,50.90
2023-02-16T12:06:08.532Z,50.60
2023-02-16T12:09:00.548Z,50.80
2023-02-16T12:11:38.507Z,50.20
2023-02-16T12:14:22.547Z,50.60
2023-02-16T12:16:59.973Z,50.20
2023-02-16T12:19:42.235Z,50.20
2023-02-16T12:22:26.832Z,50.10
2023-02-16T12:25:20.034Z,50.10
2023-02-16T12:27:55.997Z,50.00
2023-02-16T12:30:46.768Z,50.00
2023-02-16T12:33:28.697Z,50.00
2023-02-16T12:36:23.202Z,50.00
2023-02-16T12:39:02.005Z,50.00
2023-02-16T12:41:44.541Z,50.00
2023-02-16T12:44:17.736Z,49.90
2023-02-16T12:46:49.948Z,49.90
2023-02-16T12:49:25.709Z,49.90
2023-02-16T12:51:59.341Z,49.90
2023-02-16T12:54:34.981Z,49.90
2023-02-16T12:57:08.531Z,49.90
2023-02-16T12:59:44.781Z,49.90
2023-02-16T13:02:19.065Z,49.90
2023-02-16T13:04:58.113Z,49.90
2023-02-16T13:07:32.748Z,49.90
2023-02-16T13:10:08.412Z,49.90
2023-02-16T13:12:43.030Z,49.90
2023-02-16T13:15:17.331Z,49.90
2023-02-16T13:17:50.845Z,49.90
2023-02-16T13:20:23.469Z,50.00
2023-02-16T13:23:19.139Z,49.90
2023-02-16T13:26:02.697Z,50.00
2023-02-16T13:28:53.310Z,50.00
2023-02-16T13:31:38.813Z,49.90
2023-02-16T13:34:32.524Z,49.90
2023-02-16T13:37:20.188Z,50.00
2023-02-16T13:40:26.322Z,50.00
2023-02-16T13:43:21.727Z,50.00
2023-02-16T13:45:54.298Z,50.00
2023-02-16T13:48:27.549Z,50.00
2023-02-16T13:50:59.821Z,50.00
2023-02-16T13:53:36.376Z,50.00
2023-02-16T13:56:17.809Z,50.00
2023-02-16T13:58:47.061Z,50.00
2023-02-16T14:01:42.071Z,50.00
2023-02-16T14:04:36.301Z,50.00
2023-02-16T14:07:36.056Z,50.00
2023-02-16T14:10:07.105Z,50.00
2023-02-16T14:12:40.977Z,50.00
2023-02-16T14:15:20.789Z,50.00
2023-02-16T14:17:50.153Z,50.60
2023-02-16T14:20:31.219Z,50.00
2023-02-16T14:23:02.012Z,50.00
2023-02-16T14:25:40.284Z,50.00
2023-02-16T14:28:48.048Z,50.00
2023-02-16T14:31:23.091Z,50.00
2023-02-16T14:34:02.618Z,50.00
2023-02-16T14:36:32.401Z,50.00
2023-02-16T14:39:03.491Z,50.00
2023-02-16T14:41:35.166Z,50.00
2023-02-16T14:44:35.867Z,50.00
2023-02-16T14:47:18.929Z,50.00
2023-02-16T14:50:12.767Z,50.00
2023-02-16T14:56:28.429Z,50.00
2023-02-16T14:59:01.732Z,50.10
2023-02-16T15:01:39.620Z,50.00
2023-02-16T15:04:12.360Z,50.00
2023-02-16T15:06:44.280Z,50.00
2023-02-16T15:09:18.084Z,50.10
2023-02-16T15:12:11.308Z,50.00
2023-02-16T15:14:45.499Z,50.00
2023-02-16T15:17:27.033Z,50.00
2023-02-16T15:20:00.155Z,50.00
2023-02-16T15:22:30.082Z,50.10
2023-02-16T15:25:02.171Z,50.00
2023-02-16T15:27:34.214Z,50.00
2023-02-16T15:30:10.636Z,50.00
2023-02-16T15:32:40.022Z,50.00
2023-02-16T15:35:15.336Z,50.00
2023-02-16T15:37:44.525Z,50.00
2023-02-16T15:40:25.378Z,50.00
2023-02-16T15:43:02.071Z,50.00
2023-02-16T15:45:35.507Z,50.00
2023-02-16T15:48:15.818Z,50.00
2023-02-16T15:50:46.521Z,50.00
2023-02-16T15:53:16.696Z,50.00
2023-02-16T15:55:48.113Z,50.10
2023-02-16T15:58:19.022Z,50.00
2023-02-16T16:00:49.100Z,50.00
2023-02-16T16:03:22.631Z,50.00
2023-02-16T16:06:03.911Z,50.00
2023-02-16T16:08:34.082Z,50.00
2023-02-16T16:11:03.683Z,50.00
2023-02-16T16:13:36.190Z,50.00
2023-02-16T16:16:07.128Z,50.00
2023-02-16T16:18:46.315Z,50.00
2023-02-16T16:21:29.352Z,50.00
2023-02-16T16:24:01.308Z,50.00
2023-02-16T16:26:33.146Z,50.00
2023-02-16T16:29:03.913Z,50.00
2023-02-16T16:31:43.671Z,50.00
2023-02-16T16:34:32.973Z,50.10
2023-02-16T16:37:04.087Z,50.10
2023-02-16T16:39:35.762Z,49.80
2023-02-16T16:42:19.673Z,49.20
2023-02-16T16:45:00.423Z,48.70
2023-02-16T16:47:33.195Z,48.20
2023-02-16T16:50:09.463Z,47.80
2023-02-16T16:52:42.593Z,47.40
2023-02-16T16:55:27.304Z,47.20
2023-02-16T16:57:58.323Z,46.70
2023-02-16T17:00:34.269Z,46.50
2023-02-16T17:03:03.976Z,46.30
2023-02-16T17:05:33.621Z,46.10
2023-02-16T17:08:02.900Z,46.10
2023-02-16T17:10:32.200Z,46.00
2023-02-16T17:13:03.127Z,45.90
2023-02-16T17:15:48.846Z,45.80
2023-02-16T17:18:19.551Z,45.80
2023-02-16T17:20:49.510Z,45.70
2023-02-16T17:23:21.020Z,45.90
2023-02-16T17:25:51.479Z,46.00
2023-02-16T17:28:22.109Z,46.10
2023-02-16T17:30:52.744Z,46.20
2023-02-16T17:33:21.991Z,46.10
2023-02-16T17:35:51.889Z,46.10
2023-02-16T17:38:22.787Z,46.10
2023-02-16T17:40:54.108Z,46.10
2023-02-16T17:43:24.818Z,46.00
2023-02-16T17:45:59.751Z,45.90
2023-02-16T17:48:31.432Z,45.80
2023-02-16T17:51:01.235Z,45.70
2023-02-16T17:53:30.616Z,45.60
2023-02-16T17:56:00.135Z,45.60
2023-02-16T17:58:29.342Z,45.40
2023-02-16T18:01:00.147Z,45.40
2023-02-16T18:03:29.426Z,45.50
2023-02-16T18:05:58.875Z,45.50
2023-02-16T18:08:28.315Z,45.70
2023-02-16T18:11:02.295Z,45.90
2023-02-16T18:13:32.361Z,45.90
2023-02-16T18:16:04.635Z,46.00
2023-02-16T18:18:36.944Z,46.00
2023-02-16T18:21:06.837Z,46.30
2023-02-16T18:23:36.769Z,46.10
2023-02-16T18:26:07.415Z,46.30
2023-02-16T18:28:36.873Z,46.30
2023-02-16T18:31:08.776Z,46.50
2023-02-16T18:33:38.118Z,46.70
2023-02-16T18:36:08.444Z,46.90
2023-02-16T18:38:37.790Z,47.00
2023-02-16T18:41:07.038Z,46.80
2023-02-16T18:43:37.388Z,46.80
2023-02-16T18:46:10.000Z,46.70
2023-02-16T18:48:39.180Z,46.70
2023-02-16T18:51:10.645Z,46.60
2023-02-16T18:53:40.646Z,46.50
2023-02-16T18:56:11.584Z,46.40
2023-02-16T18:58:40.922Z,46.40
2023-02-16T19:01:16.195Z,46.40
2023-02-16T19:03:45.529Z,46.30
2023-02-16T19:06:15.578Z,45.80
2023-02-16T19:08:45.072Z,46.00
2023-02-16T19:11:14.423Z,46.00
2023-02-16T19:13:43.938Z,46.30
2023-02-16T19:16:15.042Z,46.50
2023-02-16T19:18:44.655Z,46.60
2023-02-16T19:21:15.608Z,46.70
2023-02-16T19:23:45.692Z,46.60
2023-02-16T19:26:17.352Z,46.60
2023-02-16T19:28:47.413Z,46.70
2023-02-16T19:31:23.053Z,46.70
2023-02-16T19:33:52.993Z,46.80
2023-02-16T19:36:23.363Z,46.80
2023-02-16T19:38:53.824Z,46.70
2023-02-16T19:41:26.117Z,46.70
2023-02-16T19:43:56.916Z,46.70
2023-02-16T19:46:29.725Z,46.70
2023-02-16T19:48:59.793Z,46.60
2023-02-16T19:51:29.509Z,46.60
2023-02-16T19:53:59.710Z,46.70
2023-02-16T19:56:30.102Z,46.70
2023-02-16T19:59:00.895Z,46.60
2023-02-16T20:01:31.910Z,46.60
2023-02-16T20:04:03.081Z,46.60
2023-02-16T20:06:34.520Z,46.50
2023-02-16T20:09:04.292Z,46.50
2023-02-16T20:11:33.688Z,46.40
2023-02-16T20:14:03.432Z,46.30
2023-02-16T20:16:34.192Z,46.30
2023-02-16T20:19:03.566Z,46.30
2023-02-16T20:21:32.918Z,46.30
2023-02-16T20:24:03.889Z,46.50
2023-02-16T20:26:34.955Z,46.70
2023-02-16T20:29:06.172Z,46.80
2023-02-16T20:31:38.926Z,47.00
2023-02-16T20:34:09.003Z,47.10
2023-02-16T20:36:38.581Z,47.10
2023-02-16T20:39:09.385Z,47.10
2023-02-16T20:41:38.887Z,47.30
2023-02-16T20:44:08.036Z,47.20
2023-02-16T20:46:40.299Z,47.40
2023-02-16T20:49:10.455Z,47.40
2023-02-16T20:51:41.496Z,47.40
2023-02-16T20:54:11.049Z,47.60
2023-02-16T20:56:40.268Z,47.80
2023-02-16T20:59:09.517Z,48.40
2023-02-16T21:01:43.653Z,48.40
2023-02-16T21:04:14.059Z,48.40
2023-02-16T21:06:43.608Z,48.20
2023-02-16T21:09:13.120Z,48.00
2023-02-16T21:11:42.666Z,47.90
2023-02-16T21:14:14.404Z,48.00
2023-02-16T21:16:45.438Z,48.00
2023-02-16T21:19:22.851Z,47.90
2023-02-16T21:21:53.244Z,47.90
2023-02-16T21:24:22.544Z,48.00
2023-02-16T21:26:51.814Z,47.90
2023-02-16T21:29:20.964Z,47.90
2023-02-16T21:31:51.644Z,48.00
2023-02-16T21:34:20.968Z,48.00
2023-02-16T21:36:50.251Z,48.10
2023-02-16T21:39:19.635Z,48.10
2023-02-16T21:41:49.226Z,48.10
2023-02-16T21:44:19.312Z,48.00
2023-02-16T21:46:51.028Z,48.00
2023-02-16T21:49:20.378Z,48.10
2023-02-16T21:51:50.441Z,48.00
2023-02-16T21:54:41.233Z,48.10
2023-02-16T21:57:09.543Z,48.20
2023-02-16T21:59:38.919Z,48.10
2023-02-16T22:02:11.949Z,48.10
2023-02-16T22:04:41.477Z,48.10
2023-02-16T22:07:10.728Z,48.20
2023-02-16T22:09:39.925Z,48.20
2023-02-16T22:12:09.401Z,48.20
2023-02-16T22:14:39.152Z,48.20
2023-02-16T22:17:09.852Z,48.10
2023-02-16T22:19:39.312Z,48.10
2023-02-16T22:22:08.539Z,48.10
2023-02-16T22:24:39.047Z,48.10
2023-02-16T22:27:08.300Z,48.10
2023-02-16T22:29:37.504Z,48.10
2023-02-16T22:32:06.915Z,48.20
2023-02-16T22:34:37.768Z,48.30
2023-02-16T22:37:07.054Z,48.40
2023-02-16T22:39:36.458Z,48.50
2023-02-16T22:42:06.227Z,48.50
2023-02-16T22:44:35.516Z,48.40
2023-02-16T22:47:04.866Z,48.30
2023-02-16T22:49:34.249Z,48.30
2023-02-16T22:52:04.939Z,48.30
2023-02-16T22:54:34.221Z,48.20
2023-02-16T22:57:03.489Z,48.20
2023-02-16T22:59:32.670Z,48.20
2023-02-16T23:02:01.947Z,48.20
2023-02-16T23:04:31.312Z,48.30
2023-02-16T23:07:00.723Z,48.30
2023-02-16T23:09:31.415Z,48.20
2023-02-16T23:12:00.768Z,48.20
2023-02-16T23:14:30.477Z,48.30
2023-02-16T23:16:59.898Z,48.30
2023-02-16T23:19:29.126Z,48.30
2023-02-16T23:21:58.285Z,48.30
2023-02-16T23:24:27.862Z,48.30
2023-02-16T23:26:58.653Z,48.30
2023-02-16T23:29:28.178Z,48.30
2023-02-16T23:31:57.437Z,48.30
2023-02-16T23:34:26.674Z,48.30
2023-02-16T23:36:55.990Z,48.30
2023-02-16T23:39:25.314Z,48.30
2023-02-16T23:41:54.659Z,48.30
2023-02-16T23:44:25.317Z,48.40
2023-02-16T23:46:54.542Z,48.40
2023-02-16T23:49:23.768Z,48.40
2023-02-16T23:51:53.109Z,48.40
2023-02-16T23:54:22.315Z,48.40
2023-02-16T23:56:52.836Z,48.40
2023-02-16T23:59:22.145Z,48.40
